sensor_id;sensor_type;location;lat;lon;timestamp;temperature;humidity
64501;DHT22;50874;24.150;-110.320;2023-04-19T00:01:05;30.30;81.70
64501;DHT22;50874;24.150;-110.320;2023-04-19T00:03:32;30.20;81.90
64501;DHT22;50874;24.150;-110.320;2023-04-19T00:05:58;30.30;82.00
64501;DHT22;50874;24.150;-110.320;2023-04-19T00:08:25;30.10;81.90
64501;DHT22;50874;24.150;-110.320;2023-04-19T00:10:51;30.10;82.50
64501;DHT22;50874;24.150;-110.320;2023-04-19T00:13:18;30.00;82.50
64501;DHT22;50874;24.150;-110.320;2023-04-19T00:15:44;30.00;81.90
64501;DHT22;50874;24.150;-110.320;2023-04-19T00:18:11;30.20;82.70
64501;DHT22;50874;24.150;-110.320;2023-04-19T00:20:38;30.10;82.70
64501;DHT22;50874;24.150;-110.320;2023-04-19T00:23:04;30.20;82.50
64501;DHT22;50874;24.150;-110.320;2023-04-19T00:25:31;30.20;82.30
64501;DHT22;50874;24.150;-110.320;2023-04-19T00:27:59;30.10;82.40
64501;DHT22;50874;24.150;-110.320;2023-04-19T00:30:25;29.80;83.40
64501;DHT22;50874;24.150;-110.320;2023-04-19T00:32:52;29.80;83.70
64501;DHT22;50874;24.150;-110.320;2023-04-19T00:35:18;29.80;83.40
64501;DHT22;50874;24.150;-110.320;2023-04-19T00:37:45;29.70;83.70
64501;DHT22;50874;24.150;-110.320;2023-04-19T00:40:11;29.50;84.50
64501;DHT22;50874;24.150;-110.320;2023-04-19T00:42:38;29.30;85.10
64501;DHT22;50874;24.150;-110.320;2023-04-19T00:45:05;29.20;85.30
64501;DHT22;50874;24.150;-110.320;2023-04-19T00:47:31;29.10;85.80
64501;DHT22;50874;24.150;-110.320;2023-04-19T00:49:58;29.00;85.90
64501;DHT22;50874;24.150;-110.320;2023-04-19T00:52:25;29.20;85.60
64501;DHT22;50874;24.150;-110.320;2023-04-19T00:54:52;29.30;85.40
64501;DHT22;50874;24.150;-110.320;2023-04-19T00:57:19;29.10;85.10
64501;DHT22;50874;24.150;-110.320;2023-04-19T00:59:46;29.10;85.30
64501;DHT22;50874;24.150;-110.320;2023-04-19T01:02:13;28.90;85.30
64501;DHT22;50874;24.150;-110.320;2023-04-19T01:04:40;28.90;85.90
64501;DHT22;50874;24.150;-110.320;2023-04-19T01:07:07;28.70;86.50
64501;DHT22;50874;24.150;-110.320;2023-04-19T01:09:34;28.70;86.70
64501;DHT22;50874;24.150;-110.320;2023-04-19T01:12:00;28.50;87.60
64501;DHT22;50874;24.150;-110.320;2023-04-19T01:14:28;28.40;88.10
64501;DHT22;50874;24.150;-110.320;2023-04-19T01:16:56;28.10;89.20
64501;DHT22;50874;24.150;-110.320;2023-04-19T01:19:23;27.90;90.10
64501;DHT22;50874;24.150;-110.320;2023-04-19T01:21:49;27.80;90.50
64501;DHT22;50874;24.150;-110.320;2023-04-19T01:24:17;27.70;90.90
64501;DHT22;50874;24.150;-110.320;2023-04-19T01:26:44;27.60;91.50
64501;DHT22;50874;24.150;-110.320;2023-04-19T01:29:10;27.40;92.40
64501;DHT22;50874;24.150;-110.320;2023-04-19T01:31:37;27.40;92.90
64501;DHT22;50874;24.150;-110.320;2023-04-19T01:34:03;27.20;93.70
64501;DHT22;50874;24.150;-110.320;2023-04-19T01:36:30;26.90;94.50
64501;DHT22;50874;24.150;-110.320;2023-04-19T01:38:57;26.80;95.10
64501;DHT22;50874;24.150;-110.320;2023-04-19T01:41:23;26.80;95.60
64501;DHT22;50874;24.150;-110.320;2023-04-19T01:43:52;26.70;96.10
64501;DHT22;50874;24.150;-110.320;2023-04-19T01:46:18;26.60;96.60
64501;DHT22;50874;24.150;-110.320;2023-04-19T01:48:45;26.40;97.20
64501;DHT22;50874;24.150;-110.320;2023-04-19T01:51:11;26.20;98.10
64501;DHT22;50874;24.150;-110.320;2023-04-19T01:53:38;26.10;99.00
64501;DHT22;50874;24.150;-110.320;2023-04-19T01:56:04;25.90;99.70
64501;DHT22;50874;24.150;-110.320;2023-04-19T01:58:31;25.90;99.90
64501;DHT22;50874;24.150;-110.320;2023-04-19T02:00:57;25.80;99.90
64501;DHT22;50874;24.150;-110.320;2023-04-19T02:03:24;25.80;99.90
64501;DHT22;50874;24.150;-110.320;2023-04-19T02:05:50;25.60;99.90
64501;DHT22;50874;24.150;-110.320;2023-04-19T02:08:16;25.70;99.90
64501;DHT22;50874;24.150;-110.320;2023-04-19T02:10:43;25.50;99.90
64501;DHT22;50874;24.150;-110.320;2023-04-19T02:13:09;25.40;99.90
64501;DHT22;50874;24.150;-110.320;2023-04-19T02:15:36;25.30;99.90
64501;DHT22;50874;24.150;-110.320;2023-04-19T02:18:02;25.40;99.90
64501;DHT22;50874;24.150;-110.320;2023-04-19T02:20:31;25.10;99.90
64501;DHT22;50874;24.150;-110.320;2023-04-19T02:22:58;25.10;99.90
64501;DHT22;50874;24.150;-110.320;2023-04-19T02:25:24;25.10;99.90
64501;DHT22;50874;24.150;-110.320;2023-04-19T02:27:51;24.90;99.90
64501;DHT22;50874;24.150;-110.320;2023-04-19T02:30:18;24.80;99.90
64501;DHT22;50874;24.150;-110.320;2023-04-19T02:32:49;24.70;99.90
64501;DHT22;50874;24.150;-110.320;2023-04-19T02:35:15;24.70;99.90
64501;DHT22;50874;24.150;-110.320;2023-04-19T02:37:43;24.40;99.90
64501;DHT22;50874;24.150;-110.320;2023-04-19T02:40:10;24.20;99.90
64501;DHT22;50874;24.150;-110.320;2023-04-19T02:42:36;24.20;99.90
64501;DHT22;50874;24.150;-110.320;2023-04-19T02:45:03;24.10;99.90
64501;DHT22;50874;24.150;-110.320;2023-04-19T02:47:29;24.10;99.90
64501;DHT22;50874;24.150;-110.320;2023-04-19T02:49:56;24.00;99.90
64501;DHT22;50874;24.150;-110.320;2023-04-19T02:52:22;23.90;99.90
64501;DHT22;50874;24.150;-110.320;2023-04-19T02:54:48;24.00;99.90
64501;DHT22;50874;24.150;-110.320;2023-04-19T02:57:15;23.90;99.90
64501;DHT22;50874;24.150;-110.320;2023-04-19T02:59:41;23.80;99.90
64501;DHT22;50874;24.150;-110.320;2023-04-19T03:02:08;23.70;99.90
64501;DHT22;50874;24.150;-110.320;2023-04-19T03:04:34;23.60;99.90
64501;DHT22;50874;24.150;-110.320;2023-04-19T03:07:01;23.50;99.90
64501;DHT22;50874;24.150;-110.320;2023-04-19T03:09:27;23.60;99.90
64501;DHT22;50874;24.150;-110.320;2023-04-19T03:11:54;23.60;99.90
64501;DHT22;50874;24.150;-110.320;2023-04-19T03:14:20;23.60;99.90
64501;DHT22;50874;24.150;-110.320;2023-04-19T03:16:47;23.50;99.90
64501;DHT22;50874;24.150;-110.320;2023-04-19T03:19:13;23.50;99.90
64501;DHT22;50874;24.150;-110.320;2023-04-19T03:21:40;23.40;99.90
64501;DHT22;50874;24.150;-110.320;2023-04-19T03:24:06;23.30;99.90
64501;DHT22;50874;24.150;-110.320;2023-04-19T03:26:33;23.30;99.90
64501;DHT22;50874;24.150;-110.320;2023-04-19T03:28:59;23.20;99.90
64501;DHT22;50874;24.150;-110.320;2023-04-19T03:31:26;23.20;99.90
64501;DHT22;50874;24.150;-110.320;2023-04-19T03:33:52;23.20;99.90
64501;DHT22;50874;24.150;-110.320;2023-04-19T03:36:20;23.20;99.90
64501;DHT22;50874;24.150;-110.320;2023-04-19T03:38:46;23.20;99.90
64501;DHT22;50874;24.150;-110.320;2023-04-19T03:41:23;23.10;99.90
64501;DHT22;50874;24.150;-110.320;2023-04-19T03:43:49;23.10;99.90
64501;DHT22;50874;24.150;-110.320;2023-04-19T03:46:16;23.10;99.90
64501;DHT22;50874;24.150;-110.320;2023-04-19T03:48:43;23.10;99.90
64501;DHT22;50874;24.150;-110.320;2023-04-19T03:51:09;22.80;99.90
64501;DHT22;50874;24.150;-110.320;2023-04-19T03:53:36;22.70;99.90
64501;DHT22;50874;24.150;-110.320;2023-04-19T03:56:03;22.80;99.90
64501;DHT22;50874;24.150;-110.320;2023-04-19T03:58:29;22.80;99.90
64501;DHT22;50874;24.150;-110.320;2023-04-19T04:00:57;22.80;99.90
64501;DHT22;50874;24.150;-110.320;2023-04-19T04:03:23;22.50;99.90
64501;DHT22;50874;24.150;-110.320;2023-04-19T04:05:50;22.50;99.90
64501;DHT22;50874;24.150;-110.320;2023-04-19T04:08:16;22.50;99.90
64501;DHT22;50874;24.150;-110.320;2023-04-19T04:10:42;22.50;99.90
64501;DHT22;50874;24.150;-110.320;2023-04-19T04:13:09;22.40;99.90
64501;DHT22;50874;24.150;-110.320;2023-04-19T04:15:36;22.40;99.90
64501;DHT22;50874;24.150;-110.320;2023-04-19T04:18:02;22.20;99.90
64501;DHT22;50874;24.150;-110.320;2023-04-19T04:20:28;22.30;99.90
64501;DHT22;50874;24.150;-110.320;2023-04-19T04:22:55;22.20;99.90
64501;DHT22;50874;24.150;-110.320;2023-04-19T04:25:21;22.20;99.90
64501;DHT22;50874;24.150;-110.320;2023-04-19T04:27:52;22.10;99.90
64501;DHT22;50874;24.150;-110.320;2023-04-19T04:30:19;22.20;99.90
64501;DHT22;50874;24.150;-110.320;2023-04-19T04:32:45;22.10;99.90
64501;DHT22;50874;24.150;-110.320;2023-04-19T04:35:12;22.10;99.90
64501;DHT22;50874;24.150;-110.320;2023-04-19T04:37:38;22.10;99.90
64501;DHT22;50874;24.150;-110.320;2023-04-19T04:40:05;22.00;99.90
64501;DHT22;50874;24.150;-110.320;2023-04-19T04:42:33;22.00;99.90
64501;DHT22;50874;24.150;-110.320;2023-04-19T04:45:00;21.90;99.90
64501;DHT22;50874;24.150;-110.320;2023-04-19T04:47:32;21.90;99.90
64501;DHT22;50874;24.150;-110.320;2023-04-19T04:49:59;21.90;99.90
64501;DHT22;50874;24.150;-110.320;2023-04-19T04:52:27;21.80;99.90
64501;DHT22;50874;24.150;-110.320;2023-04-19T04:54:54;21.80;99.90
64501;DHT22;50874;24.150;-110.320;2023-04-19T04:57:20;21.70;99.90
64501;DHT22;50874;24.150;-110.320;2023-04-19T04:59:47;21.70;99.90
64501;DHT22;50874;24.150;-110.320;2023-04-19T05:02:13;21.60;99.90
64501;DHT22;50874;24.150;-110.320;2023-04-19T05:04:40;21.60;99.90
64501;DHT22;50874;24.150;-110.320;2023-04-19T05:07:06;21.60;99.90
64501;DHT22;50874;24.150;-110.320;2023-04-19T05:09:33;21.50;99.90
64501;DHT22;50874;24.150;-110.320;2023-04-19T05:11:59;21.40;99.90
64501;DHT22;50874;24.150;-110.320;2023-04-19T05:14:27;21.40;99.90
64501;DHT22;50874;24.150;-110.320;2023-04-19T05:16:53;21.40;99.90
64501;DHT22;50874;24.150;-110.320;2023-04-19T05:19:20;21.50;99.90
64501;DHT22;50874;24.150;-110.320;2023-04-19T05:21:47;21.50;99.90
64501;DHT22;50874;24.150;-110.320;2023-04-19T05:24:13;21.50;99.90
64501;DHT22;50874;24.150;-110.320;2023-04-19T05:26:40;21.40;99.90
64501;DHT22;50874;24.150;-110.320;2023-04-19T05:29:06;21.40;99.90
64501;DHT22;50874;24.150;-110.320;2023-04-19T05:31:33;21.30;99.90
64501;DHT22;50874;24.150;-110.320;2023-04-19T05:33:59;21.20;99.90
64501;DHT22;50874;24.150;-110.320;2023-04-19T05:36:26;21.10;99.90
64501;DHT22;50874;24.150;-110.320;2023-04-19T05:38:53;21.10;99.90
64501;DHT22;50874;24.150;-110.320;2023-04-19T05:41:19;21.00;99.90
64501;DHT22;50874;24.150;-110.320;2023-04-19T05:43:46;20.90;99.90
64501;DHT22;50874;24.150;-110.320;2023-04-19T05:46:12;20.80;99.90
64501;DHT22;50874;24.150;-110.320;2023-04-19T05:48:39;20.80;99.90
64501;DHT22;50874;24.150;-110.320;2023-04-19T05:51:05;20.70;99.90
64501;DHT22;50874;24.150;-110.320;2023-04-19T05:53:31;20.70;99.90
64501;DHT22;50874;24.150;-110.320;2023-04-19T05:55:58;20.70;99.90
64501;DHT22;50874;24.150;-110.320;2023-04-19T05:58:24;20.70;99.90
64501;DHT22;50874;24.150;-110.320;2023-04-19T06:00:52;20.60;99.90
64501;DHT22;50874;24.150;-110.320;2023-04-19T06:03:18;20.60;99.90
64501;DHT22;50874;24.150;-110.320;2023-04-19T06:05:44;20.60;99.90
64501;DHT22;50874;24.150;-110.320;2023-04-19T06:08:11;20.50;99.90
64501;DHT22;50874;24.150;-110.320;2023-04-19T06:10:37;20.50;99.90
64501;DHT22;50874;24.150;-110.320;2023-04-19T06:13:04;20.40;99.90
64501;DHT22;50874;24.150;-110.320;2023-04-19T06:15:30;20.40;99.90
64501;DHT22;50874;24.150;-110.320;2023-04-19T06:17:57;20.40;99.90
64501;DHT22;50874;24.150;-110.320;2023-04-19T06:20:23;20.30;99.90
64501;DHT22;50874;24.150;-110.320;2023-04-19T06:22:50;20.30;99.90
64501;DHT22;50874;24.150;-110.320;2023-04-19T06:25:16;20.30;99.90
64501;DHT22;50874;24.150;-110.320;2023-04-19T06:27:42;20.30;99.90
64501;DHT22;50874;24.150;-110.320;2023-04-19T06:30:09;20.30;99.90
64501;DHT22;50874;24.150;-110.320;2023-04-19T06:32:36;20.10;99.90
64501;DHT22;50874;24.150;-110.320;2023-04-19T06:35:02;20.10;99.90
64501;DHT22;50874;24.150;-110.320;2023-04-19T06:37:29;20.10;99.90
64501;DHT22;50874;24.150;-110.320;2023-04-19T06:39:55;19.90;99.90
64501;DHT22;50874;24.150;-110.320;2023-04-19T06:42:22;19.90;99.90
64501;DHT22;50874;24.150;-110.320;2023-04-19T06:44:50;19.80;99.90
64501;DHT22;50874;24.150;-110.320;2023-04-19T06:47:16;19.80;99.90
64501;DHT22;50874;24.150;-110.320;2023-04-19T06:49:43;19.80;99.90
64501;DHT22;50874;24.150;-110.320;2023-04-19T06:52:09;19.70;99.90
64501;DHT22;50874;24.150;-110.320;2023-04-19T06:54:36;19.60;99.90
64501;DHT22;50874;24.150;-110.320;2023-04-19T06:57:02;19.60;99.90
64501;DHT22;50874;24.150;-110.320;2023-04-19T06:59:29;19.70;99.90
64501;DHT22;50874;24.150;-110.320;2023-04-19T07:01:57;19.70;99.90
64501;DHT22;50874;24.150;-110.320;2023-04-19T07:04:25;19.70;99.90
64501;DHT22;50874;24.150;-110.320;2023-04-19T07:06:51;19.70;99.90
64501;DHT22;50874;24.150;-110.320;2023-04-19T07:09:18;19.70;99.90
64501;DHT22;50874;24.150;-110.320;2023-04-19T07:11:44;19.70;99.90
64501;DHT22;50874;24.150;-110.320;2023-04-19T07:14:12;19.60;99.90
64501;DHT22;50874;24.150;-110.320;2023-04-19T07:16:40;19.70;99.90
64501;DHT22;50874;24.150;-110.320;2023-04-19T07:19:06;19.60;99.90
64501;DHT22;50874;24.150;-110.320;2023-04-19T07:21:33;19.70;99.90
64501;DHT22;50874;24.150;-110.320;2023-04-19T07:24:00;19.70;99.90
64501;DHT22;50874;24.150;-110.320;2023-04-19T07:26:26;19.70;99.90
64501;DHT22;50874;24.150;-110.320;2023-04-19T07:28:53;19.70;99.90
64501;DHT22;50874;24.150;-110.320;2023-04-19T07:31:19;19.60;99.90
64501;DHT22;50874;24.150;-110.320;2023-04-19T07:33:46;19.70;99.90
64501;DHT22;50874;24.150;-110.320;2023-04-19T07:36:12;19.60;99.90
64501;DHT22;50874;24.150;-110.320;2023-04-19T07:38:39;19.70;99.90
64501;DHT22;50874;24.150;-110.320;2023-04-19T07:41:05;19.60;99.90
64501;DHT22;50874;24.150;-110.320;2023-04-19T07:43:32;19.50;99.90
64501;DHT22;50874;24.150;-110.320;2023-04-19T07:45:58;19.50;99.90
64501;DHT22;50874;24.150;-110.320;2023-04-19T07:48:25;19.50;99.90
64501;DHT22;50874;24.150;-110.320;2023-04-19T07:50:51;19.50;99.90
64501;DHT22;50874;24.150;-110.320;2023-04-19T07:53:18;19.50;99.90
64501;DHT22;50874;24.150;-110.320;2023-04-19T07:55:45;19.50;99.90
64501;DHT22;50874;24.150;-110.320;2023-04-19T07:58:11;19.50;99.90
64501;DHT22;50874;24.150;-110.320;2023-04-19T08:00:38;19.50;99.90
64501;DHT22;50874;24.150;-110.320;2023-04-19T08:03:04;19.50;99.90
64501;DHT22;50874;24.150;-110.320;2023-04-19T08:05:31;19.50;99.90
64501;DHT22;50874;24.150;-110.320;2023-04-19T08:07:57;19.50;99.90
64501;DHT22;50874;24.150;-110.320;2023-04-19T08:10:24;19.50;99.90
64501;DHT22;50874;24.150;-110.320;2023-04-19T08:12:51;19.40;99.90
64501;DHT22;50874;24.150;-110.320;2023-04-19T08:15:18;19.40;99.90
64501;DHT22;50874;24.150;-110.320;2023-04-19T08:17:44;19.30;99.90
64501;DHT22;50874;24.150;-110.320;2023-04-19T08:20:11;19.20;99.90
64501;DHT22;50874;24.150;-110.320;2023-04-19T08:22:39;19.30;99.90
64501;DHT22;50874;24.150;-110.320;2023-04-19T08:25:06;19.20;99.90
64501;DHT22;50874;24.150;-110.320;2023-04-19T08:27:34;19.20;99.90
64501;DHT22;50874;24.150;-110.320;2023-04-19T08:30:00;19.20;99.90
64501;DHT22;50874;24.150;-110.320;2023-04-19T08:32:27;19.20;99.90
64501;DHT22;50874;24.150;-110.320;2023-04-19T08:34:53;19.20;99.90
64501;DHT22;50874;24.150;-110.320;2023-04-19T08:37:19;19.20;99.90
64501;DHT22;50874;24.150;-110.320;2023-04-19T08:39:46;19.30;99.90
64501;DHT22;50874;24.150;-110.320;2023-04-19T08:42:12;19.30;99.90
64501;DHT22;50874;24.150;-110.320;2023-04-19T08:44:39;19.30;99.90
64501;DHT22;50874;24.150;-110.320;2023-04-19T08:47:06;19.30;99.90
64501;DHT22;50874;24.150;-110.320;2023-04-19T08:49:38;19.30;99.90
64501;DHT22;50874;24.150;-110.320;2023-04-19T08:52:06;19.20;99.90
64501;DHT22;50874;24.150;-110.320;2023-04-19T08:54:35;19.20;99.90
64501;DHT22;50874;24.150;-110.320;2023-04-19T08:57:01;19.20;99.90
64501;DHT22;50874;24.150;-110.320;2023-04-19T08:59:28;19.20;99.90
64501;DHT22;50874;24.150;-110.320;2023-04-19T09:02:00;19.20;99.90
64501;DHT22;50874;24.150;-110.320;2023-04-19T09:04:27;19.20;99.90
64501;DHT22;50874;24.150;-110.320;2023-04-19T09:06:54;19.30;99.90
64501;DHT22;50874;24.150;-110.320;2023-04-19T09:09:26;19.20;99.90
64501;DHT22;50874;24.150;-110.320;2023-04-19T09:11:53;19.10;99.90
64501;DHT22;50874;24.150;-110.320;2023-04-19T09:14:21;19.10;99.90
64501;DHT22;50874;24.150;-110.320;2023-04-19T09:16:48;19.10;99.90
64501;DHT22;50874;24.150;-110.320;2023-04-19T09:19:17;19.10;99.90
64501;DHT22;50874;24.150;-110.320;2023-04-19T09:21:43;19.10;99.90
64501;DHT22;50874;24.150;-110.320;2023-04-19T09:24:10;19.20;99.90
64501;DHT22;50874;24.150;-110.320;2023-04-19T09:26:37;19.10;99.90
64501;DHT22;50874;24.150;-110.320;2023-04-19T09:29:07;19.20;99.90
64501;DHT22;50874;24.150;-110.320;2023-04-19T09:31:36;19.20;99.90
64501;DHT22;50874;24.150;-110.320;2023-04-19T09:34:13;19.30;99.90
64501;DHT22;50874;24.150;-110.320;2023-04-19T09:36:40;19.30;99.90
64501;DHT22;50874;24.150;-110.320;2023-04-19T09:39:06;19.40;99.90
64501;DHT22;50874;24.150;-110.320;2023-04-19T09:41:33;19.40;99.90
64501;DHT22;50874;24.150;-110.320;2023-04-19T09:44:12;19.50;99.90
64501;DHT22;50874;24.150;-110.320;2023-04-19T09:46:40;19.60;99.90
64501;DHT22;50874;24.150;-110.320;2023-04-19T09:49:17;19.60;99.90
64501;DHT22;50874;24.150;-110.320;2023-04-19T09:51:55;19.60;99.90
64501;DHT22;50874;24.150;-110.320;2023-04-19T09:54:23;19.70;99.90
64501;DHT22;50874;24.150;-110.320;2023-04-19T09:56:50;19.70;99.90
64501;DHT22;50874;24.150;-110.320;2023-04-19T09:59:18;19.80;99.90
64501;DHT22;50874;24.150;-110.320;2023-04-19T10:01:52;19.80;99.90
64501;DHT22;50874;24.150;-110.320;2023-04-19T10:04:19;19.80;99.90
64501;DHT22;50874;24.150;-110.320;2023-04-19T10:06:50;19.80;99.90
64501;DHT22;50874;24.150;-110.320;2023-04-19T10:09:18;19.70;99.90
64501;DHT22;50874;24.150;-110.320;2023-04-19T10:11:49;19.70;99.90
64501;DHT22;50874;24.150;-110.320;2023-04-19T10:14:18;19.70;99.90
64501;DHT22;50874;24.150;-110.320;2023-04-19T10:16:47;19.70;99.90
64501;DHT22;50874;24.150;-110.320;2023-04-19T10:19:18;19.60;99.90
64501;DHT22;50874;24.150;-110.320;2023-04-19T10:21:47;19.60;99.90
64501;DHT22;50874;24.150;-110.320;2023-04-19T10:24:15;19.60;99.90
64501;DHT22;50874;24.150;-110.320;2023-04-19T10:27:12;19.60;99.90
64501;DHT22;50874;24.150;-110.320;2023-04-19T10:32:20;19.60;99.90
64501;DHT22;50874;24.150;-110.320;2023-04-19T10:34:46;19.60;99.90
64501;DHT22;50874;24.150;-110.320;2023-04-19T10:37:13;19.60;99.90
64501;DHT22;50874;24.150;-110.320;2023-04-19T10:39:41;19.60;99.90
64501;DHT22;50874;24.150;-110.320;2023-04-19T10:42:08;19.60;99.90
64501;DHT22;50874;24.150;-110.320;2023-04-19T10:44:35;19.60;99.90
64501;DHT22;50874;24.150;-110.320;2023-04-19T10:47:04;19.50;99.90
64501;DHT22;50874;24.150;-110.320;2023-04-19T10:49:31;19.40;99.90
64501;DHT22;50874;24.150;-110.320;2023-04-19T10:52:28;19.30;99.90
64501;DHT22;50874;24.150;-110.320;2023-04-19T10:54:55;19.20;99.90
64501;DHT22;50874;24.150;-110.320;2023-04-19T10:57:22;19.10;99.90
64501;DHT22;50874;24.150;-110.320;2023-04-19T11:00:17;19.10;99.90
64501;DHT22;50874;24.150;-110.320;2023-04-19T11:02:43;19.00;99.90
64501;DHT22;50874;24.150;-110.320;2023-04-19T11:05:10;18.90;99.90
64501;DHT22;50874;24.150;-110.320;2023-04-19T11:07:39;18.90;99.90
64501;DHT22;50874;24.150;-110.320;2023-04-19T11:10:07;18.80;99.90
64501;DHT22;50874;24.150;-110.320;2023-04-19T11:12:34;18.80;99.90
64501;DHT22;50874;24.150;-110.320;2023-04-19T11:15:00;18.70;99.90
64501;DHT22;50874;24.150;-110.320;2023-04-19T11:17:29;18.70;99.90
64501;DHT22;50874;24.150;-110.320;2023-04-19T11:19:58;18.70;99.90
64501;DHT22;50874;24.150;-110.320;2023-04-19T11:22:32;18.70;99.90
64501;DHT22;50874;24.150;-110.320;2023-04-19T11:25:15;18.60;99.90
64501;DHT22;50874;24.150;-110.320;2023-04-19T11:27:50;18.60;99.90
64501;DHT22;50874;24.150;-110.320;2023-04-19T11:30:19;18.60;99.90
64501;DHT22;50874;24.150;-110.320;2023-04-19T11:32:48;18.50;99.90
64501;DHT22;50874;24.150;-110.320;2023-04-19T11:35:20;18.40;99.90
64501;DHT22;50874;24.150;-110.320;2023-04-19T11:37:47;18.40;99.90
64501;DHT22;50874;24.150;-110.320;2023-04-19T11:40:18;18.40;99.90
64501;DHT22;50874;24.150;-110.320;2023-04-19T11:42:45;18.40;99.90
64501;DHT22;50874;24.150;-110.320;2023-04-19T11:45:26;18.30;99.90
64501;DHT22;50874;24.150;-110.320;2023-04-19T11:47:55;18.30;99.90
64501;DHT22;50874;24.150;-110.320;2023-04-19T11:52:58;18.10;99.90
64501;DHT22;50874;24.150;-110.320;2023-04-19T11:55:25;18.10;99.90
64501;DHT22;50874;24.150;-110.320;2023-04-19T11:57:51;18.10;99.90
64501;DHT22;50874;24.150;-110.320;2023-04-19T12:00:26;18.10;99.90
64501;DHT22;50874;24.150;-110.320;2023-04-19T12:02:54;18.00;99.90
64501;DHT22;50874;24.150;-110.320;2023-04-19T12:05:20;18.10;99.90
64501;DHT22;50874;24.150;-110.320;2023-04-19T12:08:05;18.10;99.90
64501;DHT22;50874;24.150;-110.320;2023-04-19T12:10:35;18.20;99.90
64501;DHT22;50874;24.150;-110.320;2023-04-19T12:13:23;18.10;99.90
64501;DHT22;50874;24.150;-110.320;2023-04-19T12:15:50;18.10;99.90
64501;DHT22;50874;24.150;-110.320;2023-04-19T12:18:17;18.10;99.90
64501;DHT22;50874;24.150;-110.320;2023-04-19T12:20:47;18.20;99.90
64501;DHT22;50874;24.150;-110.320;2023-04-19T12:23:15;18.30;99.90
64501;DHT22;50874;24.150;-110.320;2023-04-19T12:25:44;18.30;99.90
64501;DHT22;50874;24.150;-110.320;2023-04-19T12:28:12;18.40;99.90
64501;DHT22;50874;24.150;-110.320;2023-04-19T12:30:39;18.40;99.90
64501;DHT22;50874;24.150;-110.320;2023-04-19T12:33:06;18.40;99.90
64501;DHT22;50874;24.150;-110.320;2023-04-19T12:35:33;18.40;99.90
64501;DHT22;50874;24.150;-110.320;2023-04-19T12:38:00;18.40;99.90
64501;DHT22;50874;24.150;-110.320;2023-04-19T12:40:28;18.40;99.90
64501;DHT22;50874;24.150;-110.320;2023-04-19T12:42:55;18.30;99.90
64501;DHT22;50874;24.150;-110.320;2023-04-19T12:45:21;18.20;99.90
64501;DHT22;50874;24.150;-110.320;2023-04-19T12:47:48;18.10;99.90
64501;DHT22;50874;24.150;-110.320;2023-04-19T12:50:15;18.10;99.90
64501;DHT22;50874;24.150;-110.320;2023-04-19T12:52:42;18.10;99.90
64501;DHT22;50874;24.150;-110.320;2023-04-19T12:55:09;18.00;99.90
64501;DHT22;50874;24.150;-110.320;2023-04-19T12:57:35;18.00;99.90
64501;DHT22;50874;24.150;-110.320;2023-04-19T13:00:02;18.00;99.90
64501;DHT22;50874;24.150;-110.320;2023-04-19T13:02:32;18.00;99.90
64501;DHT22;50874;24.150;-110.320;2023-04-19T13:04:58;17.90;99.90
64501;DHT22;50874;24.150;-110.320;2023-04-19T13:07:25;17.90;99.90
64501;DHT22;50874;24.150;-110.320;2023-04-19T13:09:53;17.90;99.90
64501;DHT22;50874;24.150;-110.320;2023-04-19T13:12:19;17.90;99.90
64501;DHT22;50874;24.150;-110.320;2023-04-19T13:14:46;17.90;99.90
64501;DHT22;50874;24.150;-110.320;2023-04-19T13:17:17;17.90;99.90
64501;DHT22;50874;24.150;-110.320;2023-04-19T13:19:44;17.90;99.90
64501;DHT22;50874;24.150;-110.320;2023-04-19T13:22:10;17.90;99.90
64501;DHT22;50874;24.150;-110.320;2023-04-19T13:24:36;17.90;99.90
64501;DHT22;50874;24.150;-110.320;2023-04-19T13:27:03;17.90;99.90
64501;DHT22;50874;24.150;-110.320;2023-04-19T13:29:29;17.90;99.90
64501;DHT22;50874;24.150;-110.320;2023-04-19T13:31:56;18.00;99.90
64501;DHT22;50874;24.150;-110.320;2023-04-19T13:34:22;17.90;99.90
64501;DHT22;50874;24.150;-110.320;2023-04-19T13:36:49;18.00;99.90
64501;DHT22;50874;24.150;-110.320;2023-04-19T13:39:15;18.00;99.90
64501;DHT22;50874;24.150;-110.320;2023-04-19T13:41:42;18.10;99.90
64501;DHT22;50874;24.150;-110.320;2023-04-19T13:44:08;18.10;99.90
64501;DHT22;50874;24.150;-110.320;2023-04-19T13:46:35;18.20;99.90
64501;DHT22;50874;24.150;-110.320;2023-04-19T13:49:01;18.20;99.90
64501;DHT22;50874;24.150;-110.320;2023-04-19T13:51:28;18.30;99.90
64501;DHT22;50874;24.150;-110.320;2023-04-19T13:53:54;18.40;99.90
64501;DHT22;50874;24.150;-110.320;2023-04-19T13:56:21;18.40;99.90
64501;DHT22;50874;24.150;-110.320;2023-04-19T13:58:47;18.40;99.90
64501;DHT22;50874;24.150;-110.320;2023-04-19T14:01:13;18.50;99.90
64501;DHT22;50874;24.150;-110.320;2023-04-19T14:03:40;18.60;99.90
64501;DHT22;50874;24.150;-110.320;2023-04-19T14:06:06;18.80;99.90
64501;DHT22;50874;24.150;-110.320;2023-04-19T14:08:33;19.30;99.90
64501;DHT22;50874;24.150;-110.320;2023-04-19T14:10:59;19.80;99.90
64501;DHT22;50874;24.150;-110.320;2023-04-19T14:13:26;20.20;99.90
64501;DHT22;50874;24.150;-110.320;2023-04-19T14:15:52;20.20;99.90
64501;DHT22;50874;24.150;-110.320;2023-04-19T14:18:19;20.40;99.90
64501;DHT22;50874;24.150;-110.320;2023-04-19T14:20:45;20.50;99.90
64501;DHT22;50874;24.150;-110.320;2023-04-19T14:23:12;20.20;99.90
64501;DHT22;50874;24.150;-110.320;2023-04-19T14:25:41;20.20;99.90
64501;DHT22;50874;24.150;-110.320;2023-04-19T14:28:07;20.20;99.90
64501;DHT22;50874;24.150;-110.320;2023-04-19T14:30:33;20.30;99.90
64501;DHT22;50874;24.150;-110.320;2023-04-19T14:33:00;20.70;99.90
64501;DHT22;50874;24.150;-110.320;2023-04-19T14:35:26;21.30;99.90
64501;DHT22;50874;24.150;-110.320;2023-04-19T14:37:53;21.80;99.90
64501;DHT22;50874;24.150;-110.320;2023-04-19T14:40:19;22.20;99.90
64501;DHT22;50874;24.150;-110.320;2023-04-19T14:42:46;22.10;99.90
64501;DHT22;50874;24.150;-110.320;2023-04-19T14:45:12;22.00;99.90
64501;DHT22;50874;24.150;-110.320;2023-04-19T14:47:39;21.80;99.90
64501;DHT22;50874;24.150;-110.320;2023-04-19T14:50:05;21.70;99.90
64501;DHT22;50874;24.150;-110.320;2023-04-19T14:52:32;21.60;99.90
64501;DHT22;50874;24.150;-110.320;2023-04-19T14:54:59;21.70;99.90